Time;durP1;ratioP1;P1;durP2;ratioP2;P2;SDS_P1;SDS_P2;PMS_P1;PMS_P2;Temp;Humidity;BMP_temperature;BMP_pressure;BME280_temperature;BME280_humidity;BME280_pressure;Samples;Min_cycle;Max_cycle;Signal;HPM_P1;HPM_P2
2021/10/14 00:01:18;;;;;;;10.55;5.53;;;;;;;8.11;97.63;102033.13;4967133;28;20034;-68
2021/10/14 00:03:46;;;;;;;9.70;5.38;;;;;;;8.07;97.91;102026.28;4980696;28;20034;-64
2021/10/14 00:06:12;;;;;;;8.93;4.75;;;;;;;8.01;97.86;102024.13;4963006;28;20395;-69
2021/10/14 00:08:38;;;;;;;10.02;5.28;;;;;;;7.93;97.82;102008.72;4968759;28;20034;-66
2021/10/14 00:11:04;;;;;;;9.13;5.00;;;;;;;7.93;97.89;102017.59;4967110;28;20077;-64
2021/10/14 00:13:29;;;;;;;9.73;5.07;;;;;;;7.88;98.26;102003.72;4963019;28;20069;-67
2021/10/14 00:15:55;;;;;;;10.00;5.00;;;;;;;8.05;98.95;102015.72;4967215;28;20039;-65
2021/10/14 00:18:21;;;;;;;8.48;5.00;;;;;;;8.22;99.93;102010.78;4967932;28;20116;-66
2021/10/14 00:20:46;;;;;;;9.43;4.93;;;;;;;8.43;100.00;102014.34;4966927;28;20056;-64
2021/10/14 00:23:12;;;;;;;11.02;5.25;;;;;;;8.69;100.00;102021.97;4970124;28;20583;-65
2021/10/14 00:25:39;;;;;;;10.98;5.63;;;;;;;8.90;99.63;102014.75;4969782;28;20030;-66
2021/10/14 00:28:05;;;;;;;11.95;5.30;;;;;;;9.06;99.28;102013.41;4957326;28;20045;-72
2021/10/14 00:30:30;;;;;;;12.70;5.20;;;;;;;9.14;99.35;102008.22;4980668;28;20035;-67
2021/10/14 00:32:56;;;;;;;9.57;5.32;;;;;;;9.21;98.88;102001.31;4959408;28;20079;-64
2021/10/14 00:35:22;;;;;;;9.27;4.88;;;;;;;9.39;98.27;102006.88;4959245;28;20034;-65
2021/10/14 00:37:47;;;;;;;8.10;4.65;;;;;;;9.49;98.05;102005.06;4944963;28;20026;-68
2021/10/14 00:40:16;;;;;;;9.70;5.20;;;;;;;9.55;97.16;102003.66;4965947;28;20037;-65
2021/10/14 00:42:45;;;;;;;6.88;4.55;;;;;;;9.61;96.44;101997.75;4968586;28;20030;-70
2021/10/14 00:45:12;;;;;;;8.40;4.88;;;;;;;9.71;95.92;102000.41;4968149;28;20035;-65
2021/10/14 00:47:38;;;;;;;10.10;5.28;;;;;;;9.71;95.70;101987.84;4969111;28;20045;-69
2021/10/14 00:50:06;;;;;;;6.15;4.50;;;;;;;9.80;95.35;102000.44;4967906;28;20039;-67
2021/10/14 00:52:34;;;;;;;10.27;4.28;;;;;;;9.81;95.18;101994.06;4969507;28;20416;-64
2021/10/14 00:55:00;;;;;;;8.20;4.32;;;;;;;9.84;94.94;101995.63;4963495;28;20125;-64
2021/10/14 00:57:26;;;;;;;7.88;4.43;;;;;;;9.90;95.02;102000.44;4966117;28;20439;-64
2021/10/14 00:59:52;;;;;;;9.85;5.35;;;;;;;9.93;94.36;101981.34;4961047;28;20030;-66
2021/10/14 01:02:18;;;;;;;12.23;5.43;;;;;;;10.04;93.75;101999.19;4970192;28;20061;-64
2021/10/14 01:04:44;;;;;;;7.68;4.25;;;;;;;10.05;93.60;101988.25;4973225;28;20057;-65
2021/10/14 01:07:10;;;;;;;11.27;4.43;;;;;;;10.06;93.37;101981.06;4975613;28;20166;-65
2021/10/14 01:09:38;;;;;;;9.25;4.80;;;;;;;10.13;93.08;101988.44;4968900;28;20042;-64
2021/10/14 01:12:07;;;;;;;7.30;4.30;;;;;;;10.10;92.95;101977.94;4947445;28;20395;-65
2021/10/14 01:14:33;;;;;;;5.82;4.43;;;;;;;10.16;92.71;101986.41;4967361;28;20039;-67
2021/10/14 01:16:59;;;;;;;9.30;4.60;;;;;;;10.11;92.37;101974.28;4968907;28;20042;-67
2021/10/14 01:19:25;;;;;;;6.60;4.40;;;;;;;10.16;92.13;101979.22;4971322;28;20031;-66
2021/10/14 01:21:51;;;;;;;8.18;4.82;;;;;;;10.20;92.32;101985.16;4966959;28;20041;-67
2021/10/14 01:24:17;;;;;;;9.32;4.43;;;;;;;10.20;92.02;101979.78;4966873;28;20085;-67
2021/10/14 01:26:43;;;;;;;9.18;4.80;;;;;;;10.22;91.95;101980.50;4967606;28;20050;-67
2021/10/14 01:29:09;;;;;;;8.32;4.55;;;;;;;10.22;92.05;101978.66;4955828;28;20046;-68
2021/10/14 01:31:36;;;;;;;14.70;4.90;;;;;;;10.23;91.86;101974.13;4952349;28;20086;-69
2021/10/14 01:34:02;;;;;;;6.47;4.65;;;;;;;10.24;92.20;101973.09;4969901;28;20030;-66
2021/10/14 01:36:28;;;;;;;8.35;4.93;;;;;;;10.27;91.80;101964.78;4967287;28;20921;-65
2021/10/14 01:38:53;;;;;;;7.88;5.10;;;;;;;10.28;91.61;101966.50;4966750;28;20383;-71
2021/10/14 01:41:19;;;;;;;6.93;4.45;;;;;;;10.26;91.67;101966.59;4969641;28;20570;-68
2021/10/14 01:43:45;;;;;;;8.13;5.20;;;;;;;10.26;91.92;101961.22;4968131;28;21038;-65
2021/10/14 01:46:10;;;;;;;10.60;4.78;;;;;;;10.27;91.76;101957.59;4969824;28;20047;-66
2021/10/14 01:48:36;;;;;;;8.90;5.57;;;;;;;10.23;91.86;101947.22;4969542;28;20031;-67
2021/10/14 01:51:02;;;;;;;7.85;5.30;;;;;;;10.22;91.87;101959.00;4975463;28;20506;-68
2021/10/14 01:53:28;;;;;;;8.55;4.72;;;;;;;10.19;91.99;101956.56;4964526;28;20471;-64
2021/10/14 01:55:54;;;;;;;10.93;5.32;;;;;;;10.12;92.27;101956.31;4961319;28;20049;-68
2021/10/14 01:58:21;;;;;;;7.28;5.03;;;;;;;10.01;92.17;101949.25;4970412;28;20034;-66
2021/10/14 02:00:48;;;;;;;8.27;5.30;;;;;;;9.83;92.30;101948.28;4972826;28;20034;-64
2021/10/14 02:03:14;;;;;;;8.68;4.70;;;;;;;9.56;92.37;101946.28;4971325;28;20037;-65
2021/10/14 02:05:42;;;;;;;9.45;5.57;;;;;;;9.37;93.30;101960.53;4971360;28;20039;-64
2021/10/14 02:08:08;;;;;;;10.10;5.30;;;;;;;9.20;93.57;101957.50;4970442;28;20758;-67
2021/10/14 02:10:34;;;;;;;8.73;4.78;;;;;;;9.03;94.16;101955.50;4967101;28;20085;-65
2021/10/14 02:13:00;;;;;;;8.90;5.15;;;;;;;8.80;94.49;101944.13;4968276;28;20057;-65
2021/10/14 02:15:26;;;;;;;10.10;5.40;;;;;;;8.65;94.85;101938.25;4970467;28;20045;-65
2021/10/14 02:17:52;;;;;;;9.20;4.85;;;;;;;8.56;95.33;101949.81;4973003;28;20581;-64
2021/10/14 02:20:17;;;;;;;10.32;5.88;;;;;;;8.39;95.51;101937.88;4971979;28;20042;-64
2021/10/14 02:22:44;;;;;;;7.93;4.63;;;;;;;8.28;95.95;101945.94;4970915;28;20113;-66
2021/10/14 02:25:12;;;;;;;9.75;4.93;;;;;;;8.17;96.47;101941.50;4969125;28;20034;-65
2021/10/14 02:27:37;;;;;;;8.98;5.25;;;;;;;8.08;96.60;101939.63;4963550;28;20034;-66
2021/10/14 02:30:05;;;;;;;7.57;4.55;;;;;;;8.02;97.01;101942.78;4972735;28;20057;-67
2021/10/14 02:32:31;;;;;;;9.88;5.00;;;;;;;7.94;97.66;101948.81;4962393;28;20043;-63
2021/10/14 02:34:57;;;;;;;9.18;4.68;;;;;;;7.85;97.10;101939.72;4960566;28;20033;-64
2021/10/14 02:37:24;;;;;;;9.27;5.18;;;;;;;7.75;96.91;101933.44;4962089;28;20030;-66
2021/10/14 02:39:50;;;;;;;8.80;4.93;;;;;;;7.64;97.45;101928.13;4961347;28;20035;-65
2021/10/14 02:42:16;;;;;;;9.27;5.07;;;;;;;7.56;97.60;101926.09;4967704;28;20038;-66
2021/10/14 02:44:42;;;;;;;7.78;4.70;;;;;;;7.52;98.11;101923.81;4968497;28;20034;-63
2021/10/14 02:47:08;;;;;;;10.48;4.43;;;;;;;7.49;98.32;101927.59;4964186;28;20097;-68
2021/10/14 02:49:34;;;;;;;8.18;4.95;;;;;;;7.42;98.24;101921.03;4964700;28;20042;-66
2021/10/14 02:52:00;;;;;;;11.25;5.57;;;;;;;7.34;97.82;101916.31;4962380;28;20030;-64
2021/10/14 02:54:25;;;;;;;10.07;5.55;;;;;;;7.30;98.48;101920.22;4963863;28;20389;-66
2021/10/14 02:56:51;;;;;;;9.68;4.70;;;;;;;7.26;98.20;101924.13;4970933;28;20035;-65
2021/10/14 02:59:17;;;;;;;9.13;5.05;;;;;;;7.24;99.23;101920.72;4961656;28;20030;-64
2021/10/14 03:01:42;;;;;;;11.35;5.45;;;;;;;7.21;99.08;101926.34;4962839;28;20809;-68
2021/10/14 03:04:08;;;;;;;10.05;4.63;;;;;;;7.19;99.86;101913.06;4975598;28;20038;-68
2021/10/14 03:06:34;;;;;;;12.02;4.95;;;;;;;7.27;100.00;101920.47;4966813;28;20348;-64
2021/10/14 03:09:02;;;;;;;9.60;4.80;;;;;;;7.42;100.00;101918.38;4964272;28;20022;-64
2021/10/14 03:11:27;;;;;;;8.75;4.55;;;;;;;7.52;100.00;101921.16;4963491;28;20034;-63
2021/10/14 03:13:53;;;;;;;9.10;4.90;;;;;;;7.57;100.00;101916.22;4967018;28;20035;-67
2021/10/14 03:16:19;;;;;;;8.82;5.10;;;;;;;7.54;100.00;101908.47;4946186;28;20041;-65
2021/10/14 03:18:44;;;;;;;8.63;4.90;;;;;;;7.56;100.00;101903.84;4961617;28;20404;-64
2021/10/14 03:21:10;;;;;;;7.95;4.35;;;;;;;7.66;100.00;101910.13;4945769;28;20039;-65
2021/10/14 03:23:36;;;;;;;10.95;5.90;;;;;;;7.85;100.00;101917.44;4973095;28;20495;-66
2021/10/14 03:26:04;;;;;;;12.52;5.53;;;;;;;7.96;100.00;101913.88;4971252;28;20035;-65
2021/10/14 03:28:30;;;;;;;9.98;4.88;;;;;;;8.00;100.00;101913.47;4985074;28;20073;-65
2021/10/14 03:30:56;;;;;;;8.85;4.95;;;;;;;7.97;100.00;101907.53;4961330;28;20947;-64
2021/10/14 03:33:22;;;;;;;6.45;3.75;;;;;;;7.83;99.87;101901.53;4961652;28;20062;-65
2021/10/14 03:35:47;;;;;;;6.38;3.47;;;;;;;7.63;99.11;101897.84;4966603;28;20026;-68
2021/10/14 03:38:13;;;;;;;7.90;4.10;;;;;;;7.40;98.48;101885.53;4967654;28;20407;-66
2021/10/14 03:40:39;;;;;;;4.47;3.20;;;;;;;7.29;99.02;101886.41;4969552;28;20084;-66
2021/10/14 03:43:05;;;;;;;7.72;3.40;;;;;;;7.24;99.32;101888.63;4966076;28;20035;-64
2021/10/14 03:45:30;;;;;;;9.43;4.10;;;;;;;7.16;99.81;101886.56;4976664;28;20034;-64
2021/10/14 03:47:56;;;;;;;8.88;4.60;;;;;;;7.14;99.09;101888.53;4966210;28;20035;-65
2021/10/14 03:50:22;;;;;;;7.57;3.88;;;;;;;7.14;99.60;101885.00;4958787;28;20035;-65
2021/10/14 03:52:47;;;;;;;7.30;3.85;;;;;;;7.12;99.71;101881.59;4968724;28;20040;-65
2021/10/14 03:55:16;;;;;;;9.25;4.10;;;;;;;7.12;100.00;101881.59;4966391;28;20035;-65
2021/10/14 03:57:41;;;;;;;8.98;4.93;;;;;;;7.08;100.00;101878.34;4961825;28;20062;-66
2021/10/14 04:00:08;;;;;;;8.77;4.28;;;;;;;7.05;100.00;101881.25;4969008;28;20062;-65
2021/10/14 04:02:35;;;;;;;7.75;4.47;;;;;;;6.98;100.00;101864.84;4943099;28;20026;-68
2021/10/14 04:05:00;;;;;;;8.18;4.13;;;;;;;6.99;100.00;101871.94;4964540;28;20090;-64
2021/10/14 04:07:26;;;;;;;8.07;4.47;;;;;;;7.01;100.00;101871.78;4965404;28;20365;-66
2021/10/14 04:09:52;;;;;;;7.70;3.92;;;;;;;6.97;100.00;101863.16;4968195;28;20038;-64
2021/10/14 04:12:17;;;;;;;12.95;4.93;;;;;;;6.97;100.00;101865.84;4966071;28;20039;-66
2021/10/14 04:14:45;;;;;;;7.10;4.13;;;;;;;6.84;99.59;101857.13;4965324;28;20031;-66
2021/10/14 04:17:11;;;;;;;7.18;3.80;;;;;;;6.77;99.91;101862.13;4960520;28;20035;-66
2021/10/14 04:19:36;;;;;;;6.78;3.80;;;;;;;6.69;99.46;101861.03;4971343;28;20529;-64
2021/10/14 04:22:03;;;;;;;7.13;4.05;;;;;;;6.62;100.00;101858.00;4938972;28;20038;-63
2021/10/14 04:24:29;;;;;;;10.82;4.18;;;;;;;6.57;99.52;101863.72;4975240;28;20065;-66
2021/10/14 04:26:56;;;;;;;6.32;3.90;;;;;;;6.47;99.74;101854.72;4972735;28;20119;-65
2021/10/14 04:29:22;;;;;;;5.72;3.60;;;;;;;6.39;99.60;101859.84;4940613;28;20141;-64
2021/10/14 04:31:48;;;;;;;7.13;4.05;;;;;;;6.31;100.00;101857.78;4974740;28;20045;-67
2021/10/14 04:34:14;;;;;;;5.80;3.47;;;;;;;6.22;99.61;101852.28;4977583;28;20043;-66
2021/10/14 04:36:40;;;;;;;5.63;3.42;;;;;;;6.21;99.75;101858.63;4969393;28;20093;-65
2021/10/14 04:39:06;;;;;;;10.40;3.95;;;;;;;6.23;100.00;101854.84;4968203;28;20042;-64
2021/10/14 04:41:34;;;;;;;6.25;3.97;;;;;;;6.22;100.00;101846.94;4972631;28;20038;-67
2021/10/14 04:44:00;;;;;;;8.30;3.92;;;;;;;6.30;100.00;101849.91;4967897;28;20030;-67
2021/10/14 04:46:26;;;;;;;6.72;4.15;;;;;;;6.29;100.00;101843.69;4968678;28;20093;-69
2021/10/14 04:48:51;;;;;;;8.07;3.90;;;;;;;6.25;100.00;101844.91;4965582;28;20296;-65
2021/10/14 04:51:17;;;;;;;7.40;3.30;;;;;;;6.27;100.00;101847.44;4964489;28;20038;-65
2021/10/14 04:53:43;;;;;;;7.65;3.50;;;;;;;6.27;100.00;101844.78;4966619;28;20508;-65
2021/10/14 04:56:08;;;;;;;5.93;3.95;;;;;;;6.20;100.00;101846.25;4963967;28;20032;-68
2021/10/14 04:58:34;;;;;;;6.78;3.60;;;;;;;6.16;100.00;101838.44;4965331;28;20034;-64
2021/10/14 05:01:00;;;;;;;5.82;3.75;;;;;;;6.05;100.00;101845.63;4980608;28;20430;-69
2021/10/14 05:03:31;;;;;;;6.55;3.95;;;;;;;6.03;100.00;101847.56;4971993;28;20389;-64
2021/10/14 05:05:58;;;;;;;7.53;3.58;;;;;;;5.99;100.00;101848.78;4972551;28;20109;-67
2021/10/14 05:08:23;;;;;;;6.40;3.40;;;;;;;5.96;100.00;101849.88;4963327;28;20059;-65
2021/10/14 05:10:49;;;;;;;5.55;3.33;;;;;;;5.98;100.00;101845.25;4966413;28;20031;-64
2021/10/14 05:13:15;;;;;;;5.10;2.88;;;;;;;6.05;100.00;101846.47;4969445;28;20053;-66
2021/10/14 05:15:46;;;;;;;6.95;3.20;;;;;;;6.15;100.00;101851.94;4948278;28;20121;-65
2021/10/14 05:18:11;;;;;;;7.70;3.95;;;;;;;6.26;100.00;101845.75;4950550;28;20472;-65
2021/10/14 05:20:37;;;;;;;6.25;2.97;;;;;;;6.32;100.00;101837.25;4970553;28;20042;-68
2021/10/14 05:23:03;;;;;;;6.85;3.53;;;;;;;6.41;100.00;101835.69;4963938;28;20026;-66
2021/10/14 05:25:31;;;;;;;6.15;3.60;;;;;;;6.52;100.00;101843.69;4977078;28;20077;-65
2021/10/14 05:27:57;;;;;;;6.90;3.25;;;;;;;6.47;100.00;101828.00;4971649;28;20480;-66
2021/10/14 05:30:23;;;;;;;6.75;3.50;;;;;;;6.58;100.00;101836.00;4978415;28;20049;-64
2021/10/14 05:32:49;;;;;;;9.77;4.10;;;;;;;6.55;100.00;101830.91;4960061;28;20042;-65
2021/10/14 05:35:15;;;;;;;6.53;3.08;;;;;;;6.49;100.00;101822.56;4918979;28;1370177;-65
2021/10/14 05:37:40;;;;;;;6.50;3.25;;;;;;;6.42;100.00;101818.69;4967712;28;20402;-65
2021/10/14 05:40:06;;;;;;;5.55;3.10;;;;;;;6.46;100.00;101818.31;4967550;28;20069;-66
2021/10/14 05:42:32;;;;;;;5.93;3.45;;;;;;;6.54;100.00;101826.56;4966071;28;20031;-64
2021/10/14 05:44:58;;;;;;;8.25;3.30;;;;;;;6.57;100.00;101828.13;4958851;28;20059;-67
2021/10/14 05:47:31;;;;;;;6.68;3.30;;;;;;;6.54;100.00;101820.38;4973873;28;20472;-63
2021/10/14 05:49:56;;;;;;;7.20;3.53;;;;;;;6.57;100.00;101820.97;4966518;28;20038;-66
2021/10/14 05:52:22;;;;;;;5.43;3.20;;;;;;;6.62;100.00;101825.94;4965946;28;20045;-66
2021/10/14 05:54:49;;;;;;;6.32;3.42;;;;;;;6.60;100.00;101818.03;4965756;28;22134;-65
2021/10/14 05:57:15;;;;;;;8.35;3.63;;;;;;;6.53;100.00;101819.50;4965173;28;20045;-65
2021/10/14 05:59:40;;;;;;;4.95;3.25;;;;;;;6.53;100.00;101824.00;4963508;28;20027;-67
2021/10/14 06:02:06;;;;;;;5.18;3.30;;;;;;;6.50;100.00;101810.88;4983893;28;20066;-67
2021/10/14 06:04:32;;;;;;;6.80;3.92;;;;;;;6.53;100.00;101814.16;4973825;28;20047;-64
2021/10/14 06:06:57;;;;;;;10.82;3.40;;;;;;;6.61;100.00;101810.88;4968951;28;20065;-64
2021/10/14 06:09:23;;;;;;;6.50;3.40;;;;;;;6.71;100.00;101805.63;4964607;28;20140;-65
2021/10/14 06:11:49;;;;;;;6.18;3.35;;;;;;;6.84;100.00;101790.28;4967574;28;20399;-67
2021/10/14 06:14:16;;;;;;;10.13;3.60;;;;;;;6.85;100.00;101785.78;4956335;28;20188;-65
2021/10/14 06:16:41;;;;;;;6.75;3.65;;;;;;;6.91;100.00;101793.31;4965735;28;20035;-68
2021/10/14 06:19:07;;;;;;;9.18;5.03;;;;;;;6.98;100.00;101792.66;4950156;28;20045;-64
2021/10/14 06:21:35;;;;;;;8.55;4.22;;;;;;;7.04;100.00;101778.81;4961223;28;20049;-65
2021/10/14 06:24:01;;;;;;;6.10;3.50;;;;;;;7.13;100.00;101792.38;4943665;28;20404;-65
2021/10/14 06:26:26;;;;;;;7.72;3.35;;;;;;;7.19;100.00;101790.03;4964688;28;20510;-64
2021/10/14 06:28:52;;;;;;;7.82;3.40;;;;;;;7.23;100.00;101791.47;4967455;28;20035;-64
2021/10/14 06:31:19;;;;;;;7.60;3.47;;;;;;;7.37;100.00;101792.16;4957699;28;20026;-73
2021/10/14 06:33:44;;;;;;;6.07;3.38;;;;;;;7.47;100.00;101793.91;4972381;28;20058;-65
2021/10/14 06:36:10;;;;;;;7.10;3.78;;;;;;;7.58;100.00;101792.16;4962168;28;20089;-69
2021/10/14 06:38:36;;;;;;;8.20;3.47;;;;;;;7.64;100.00;101786.25;4960995;28;20536;-65
2021/10/14 06:41:02;;;;;;;6.60;3.70;;;;;;;7.70;100.00;101783.94;4950665;28;20587;-66
2021/10/14 06:43:27;;;;;;;7.05;4.10;;;;;;;7.72;100.00;101778.41;4938777;28;20098;-64
2021/10/14 06:45:53;;;;;;;6.30;3.40;;;;;;;7.78;100.00;101780.59;4971506;28;20042;-63
2021/10/14 06:48:19;;;;;;;7.00;3.85;;;;;;;7.79;100.00;101773.41;4940153;28;20031;-66
2021/10/14 06:50:46;;;;;;;6.30;3.70;;;;;;;7.86;100.00;101786.13;4972221;28;20360;-65
2021/10/14 06:53:13;;;;;;;8.05;3.75;;;;;;;7.86;100.00;101780.78;4939251;28;20022;-64
2021/10/14 06:55:40;;;;;;;7.35;4.03;;;;;;;7.90;100.00;101778.66;4951415;28;20042;-69
2021/10/14 06:58:06;;;;;;;7.03;3.80;;;;;;;7.95;100.00;101783.63;4971885;28;20035;-64
2021/10/14 07:00:31;;;;;;;12.88;4.20;;;;;;;7.96;100.00;101779.94;4971623;28;20105;-63
2021/10/14 07:02:57;;;;;;;10.70;4.15;;;;;;;7.97;100.00;101774.47;4939210;28;20042;-64
2021/10/14 07:05:23;;;;;;;8.90;4.07;;;;;;;8.00;100.00;101781.41;4943693;28;20057;-64
2021/10/14 07:07:49;;;;;;;8.27;4.85;;;;;;;8.01;99.82;101775.03;4948590;28;20046;-63
2021/10/14 07:10:15;;;;;;;8.05;4.25;;;;;;;8.07;100.00;101777.19;4969861;28;20044;-66
2021/10/14 07:12:41;;;;;;;9.65;4.47;;;;;;;8.11;100.00;101774.09;4954959;28;20121;-68
2021/10/14 07:15:08;;;;;;;7.50;4.28;;;;;;;8.18;99.91;101777.09;4970316;28;20105;-65
2021/10/14 07:17:34;;;;;;;8.52;4.25;;;;;;;8.25;99.81;101772.88;4970164;28;20035;-64
2021/10/14 07:20:01;;;;;;;10.77;4.25;;;;;;;8.33;99.51;101772.19;4946486;28;20039;-63
2021/10/14 07:22:27;;;;;;;11.05;4.43;;;;;;;8.37;99.41;101769.13;4957714;28;20474;-64
2021/10/14 07:24:53;;;;;;;9.27;4.40;;;;;;;8.42;98.97;101770.59;4946129;28;20118;-67
2021/10/14 07:27:19;;;;;;;9.45;4.68;;;;;;;8.48;99.49;101764.66;4935377;28;20038;-64
2021/10/14 07:29:45;;;;;;;7.00;4.25;;;;;;;8.53;99.17;101762.44;4961509;28;20041;-63
2021/10/14 07:32:11;;;;;;;10.40;4.57;;;;;;;8.59;98.77;101769.91;4969701;28;20046;-63
2021/10/14 07:34:38;;;;;;;10.10;5.30;;;;;;;8.66;98.96;101763.00;4970813;28;20400;-64
2021/10/14 07:37:05;;;;;;;8.98;4.78;;;;;;;8.72;98.13;101765.13;4940799;28;20176;-64
2021/10/14 07:39:32;;;;;;;5.82;3.25;;;;;;;8.80;98.29;101765.28;4948049;28;20070;-67
2021/10/14 07:41:57;;;;;;;7.97;3.80;;;;;;;8.82;98.13;101756.28;4946938;28;21351;-65
2021/10/14 07:44:23;;;;;;;6.97;4.45;;;;;;;8.93;97.79;101769.53;4964643;28;20041;-65
2021/10/14 07:46:49;;;;;;;10.63;5.78;;;;;;;8.95;97.44;101770.25;4936108;28;20483;-67
2021/10/14 07:49:16;;;;;;;11.48;5.40;;;;;;;8.98;97.61;101764.59;4968887;28;20113;-65
2021/10/14 07:51:42;;;;;;;10.20;5.15;;;;;;;9.02;97.02;101776.72;4955372;28;20035;-64
2021/10/14 07:54:11;;;;;;;7.40;4.57;;;;;;;9.09;97.34;101782.41;4968832;28;20031;-65
2021/10/14 07:56:36;;;;;;;9.02;4.82;;;;;;;9.12;97.03;101779.41;4938625;28;20061;-64
2021/10/14 07:59:02;;;;;;;9.30;5.13;;;;;;;9.18;97.29;101774.34;4938752;28;20035;-65
2021/10/14 08:01:28;;;;;;;7.47;4.28;;;;;;;9.21;97.24;101770.53;4949771;28;20133;-66
2021/10/14 08:03:54;;;;;;;8.95;4.40;;;;;;;9.24;97.25;101764.88;4954942;28;20153;-63
2021/10/14 08:06:23;;;;;;;9.95;5.07;;;;;;;9.34;96.89;101767.53;4969279;28;20030;-66
2021/10/14 08:08:48;;;;;;;8.63;4.50;;;;;;;9.39;96.69;101765.28;4953651;28;20034;-64
2021/10/14 08:11:14;;;;;;;7.78;4.20;;;;;;;9.45;96.86;101765.56;4969718;28;20050;-65
2021/10/14 08:13:40;;;;;;;27.67;6.82;;;;;;;9.54;97.04;101773.75;4957210;28;20118;-65
2021/10/14 08:16:06;;;;;;;7.57;3.22;;;;;;;9.56;96.26;101769.91;4965278;28;20121;-67
2021/10/14 08:18:32;;;;;;;7.50;4.25;;;;;;;9.57;95.93;101774.28;4967280;28;20472;-69
2021/10/14 08:20:59;;;;;;;10.52;4.50;;;;;;;9.61;96.21;101769.50;4950385;28;20125;-66
2021/10/14 08:23:26;;;;;;;9.95;4.78;;;;;;;9.68;96.11;101768.78;4953825;28;20034;-64
2021/10/14 08:25:53;;;;;;;11.85;5.22;;;;;;;9.77;95.68;101768.88;4944420;28;20051;-67
2021/10/14 08:28:20;;;;;;;8.55;4.53;;;;;;;9.81;95.79;101762.22;4936348;28;20046;-66
2021/10/14 08:30:47;;;;;;;10.32;5.05;;;;;;;9.90;95.26;101766.72;4953400;28;20046;-65
2021/10/14 08:33:13;;;;;;;11.93;5.57;;;;;;;9.96;95.16;101763.44;4955515;28;20042;-65
2021/10/14 08:35:39;;;;;;;12.23;5.60;;;;;;;10.03;94.99;101753.81;4969310;28;20109;-65
2021/10/14 08:38:09;;;;;;;9.30;5.72;;;;;;;10.12;94.57;101758.28;4968684;28;20078;-64
2021/10/14 08:40:36;;;;;;;10.55;5.03;;;;;;;10.21;94.64;101756.53;4951408;28;20043;-66
2021/10/14 08:43:11;;;;;;;11.63;6.55;;;;;;;10.29;94.55;101763.88;4954719;28;20356;-67
2021/10/14 08:45:45;;;;;;;18.30;9.88;;;;;;;10.37;94.23;101747.84;4937658;28;20485;-63
2021/10/14 08:48:11;;;;;;;23.50;10.82;;;;;;;10.46;94.26;101751.50;4967614;28;20531;-64
2021/10/14 08:50:42;;;;;;;11.65;5.93;;;;;;;10.57;93.98;101759.34;4934442;28;20050;-66
2021/10/14 08:53:09;;;;;;;9.57;4.72;;;;;;;10.70;93.28;101757.13;4936977;28;20035;-64
2021/10/14 08:55:38;;;;;;;9.27;5.90;;;;;;;10.80;93.13;101754.38;4954073;28;20050;-64
2021/10/14 08:58:07;;;;;;;12.27;7.07;;;;;;;10.86;92.75;101745.69;4938868;28;20111;-64
2021/10/14 09:00:37;;;;;;;16.58;7.22;;;;;;;11.02;92.41;101766.53;4954403;28;20042;-69
2021/10/14 09:03:24;;;;;;;12.50;5.82;;;;;;;11.09;92.34;101766.78;4933887;28;20082;-62
2021/10/14 09:05:50;;;;;;;11.05;5.32;;;;;;;11.22;91.79;101756.44;4988530;28;20030;-63
2021/10/14 09:08:40;;;;;;;19.88;5.78;;;;;;;11.33;91.65;101756.19;4939401;28;20444;-65
2021/10/14 09:11:13;;;;;;;9.90;5.05;;;;;;;11.46;90.95;101747.72;4971449;28;20073;-67
2021/10/14 09:13:45;;;;;;;10.27;5.03;;;;;;;11.54;90.56;101752.31;4962839;28;20335;-66
2021/10/14 09:16:26;;;;;;;8.13;4.55;;;;;;;11.48;90.15;101734.06;4967457;28;20281;-65
2021/10/14 09:18:52;;;;;;;14.35;6.68;;;;;;;11.65;89.73;101749.34;4954328;28;20035;-64
2021/10/14 09:21:29;;;;;;;8.55;4.75;;;;;;;11.76;89.35;101759.84;4938938;28;20043;-64
2021/10/14 09:23:58;;;;;;;10.07;4.97;;;;;;;11.83;89.02;101760.09;4968269;28;20058;-64
2021/10/14 09:26:34;;;;;;;9.07;5.05;;;;;;;11.90;88.99;101753.06;4973358;28;20034;-69
2021/10/14 09:29:08;;;;;;;10.65;4.80;;;;;;;11.94;88.65;101746.34;4937707;28;20094;-65
2021/10/14 09:32:18;;;;;;;6.63;4.13;;;;;;;12.04;88.37;101751.59;4955280;28;20046;-68
2021/10/14 09:34:44;;;;;;;11.20;4.78;;;;;;;12.08;87.97;101750.28;4917507;29;20039;-63
2021/10/14 09:37:16;;;;;;;22.48;5.22;;;;;;;12.16;87.83;101752.19;4902159;29;20066;-68
2021/10/14 09:40:06;;;;;;;14.63;5.93;;;;;;;12.27;87.65;101752.72;4929297;28;20440;-67
2021/10/14 09:42:54;;;;;;;10.02;4.72;;;;;;;12.45;87.32;101744.53;4961699;28;20117;-64
2021/10/14 09:45:24;;;;;;;9.02;4.72;;;;;;;12.49;87.18;101724.31;4965494;28;20499;-63
2021/10/14 09:48:05;;;;;;;8.30;4.43;;;;;;;12.76;86.56;101730.44;4972774;28;20118;-63
2021/10/14 09:50:42;;;;;;;8.80;4.50;;;;;;;12.91;85.72;101727.91;4956527;28;20045;-66
2021/10/14 09:53:29;;;;;;;11.50;5.43;;;;;;;12.93;85.76;101728.59;4955945;28;20040;-64
2021/10/14 09:55:56;;;;;;;8.20;5.05;;;;;;;13.00;85.84;101724.22;4955636;28;20058;-67
2021/10/14 09:58:25;;;;;;;13.48;4.68;;;;;;;13.09;84.71;101723.19;4938348;28;20041;-66
2021/10/14 10:00:52;;;;;;;7.53;4.35;;;;;;;13.19;84.89;101717.63;4943794;28;20050;-64
2021/10/14 10:03:20;;;;;;;13.07;4.60;;;;;;;13.32;84.53;101718.00;4940212;28;20035;-68
2021/10/14 10:05:49;;;;;;;9.68;4.45;;;;;;;13.43;84.27;101714.09;4971176;28;20388;-67
2021/10/14 10:08:24;;;;;;;10.80;5.22;;;;;;;13.54;84.16;101718.31;4940146;28;20042;-64
2021/10/14 10:10:51;;;;;;;9.90;5.10;;;;;;;13.54;83.64;101711.03;4969149;28;20039;-66
2021/10/14 10:13:20;;;;;;;9.80;4.75;;;;;;;13.61;83.54;101716.59;4935418;28;20043;-66
2021/10/14 10:15:48;;;;;;;11.07;5.35;;;;;;;13.60;83.87;101704.97;4952664;28;20034;-65
2021/10/14 10:18:29;;;;;;;10.88;5.00;;;;;;;13.61;84.11;101717.44;4959601;28;20061;-64
2021/10/14 10:20:56;;;;;;;11.10;5.13;;;;;;;13.64;83.90;101713.56;4972757;28;20034;-66
2021/10/14 10:23:48;;;;;;;12.20;5.05;;;;;;;13.69;83.85;101704.94;4960391;28;20042;-68
2021/10/14 10:26:32;;;;;;;9.82;5.97;;;;;;;13.77;83.33;101704.91;4970704;28;20038;-65
2021/10/14 10:29:02;;;;;;;9.93;4.97;;;;;;;13.87;82.58;101692.03;4970995;28;20035;-67
2021/10/14 10:31:51;;;;;;;8.23;4.93;;;;;;;13.97;82.45;101692.69;4952610;28;20035;-67
2021/10/14 10:37:18;;;;;;;9.40;5.28;;;;;;;14.33;81.29;101697.56;4971435;28;20031;-69
2021/10/14 10:39:54;;;;;;;15.27;8.25;;;;;;;14.56;80.56;101685.97;4956370;28;20038;-63
2021/10/14 10:42:38;;;;;;;14.27;7.97;;;;;;;14.65;80.07;101687.59;4953075;28;20078;-64
2021/10/14 10:45:17;;;;;;;14.70;7.85;;;;;;;14.70;79.42;101690.59;4955700;28;20050;-64
2021/10/14 10:47:56;;;;;;;14.90;5.28;;;;;;;14.80;79.35;101679.53;4980735;28;20035;-64
2021/10/14 10:50:23;;;;;;;15.73;5.40;;;;;;;14.86;78.79;101679.63;4944267;28;20049;-64
2021/10/14 10:53:08;;;;;;;15.75;6.60;;;;;;;15.02;78.71;101678.66;4971968;28;20149;-65
2021/10/14 10:55:37;;;;;;;12.77;5.88;;;;;;;15.25;77.92;101672.38;4951285;28;20046;-64
2021/10/14 10:58:04;;;;;;;9.43;6.35;;;;;;;15.45;76.76;101670.78;4970988;28;20473;-67
2021/10/14 11:00:30;;;;;;;10.98;4.65;;;;;;;15.55;76.43;101674.06;4942826;28;20105;-67
2021/10/14 11:03:13;;;;;;;13.32;6.03;;;;;;;15.64;75.27;101673.97;4954387;28;20031;-64
2021/10/14 11:05:47;;;;;;;;;;;;;;;15.72;74.83;101668.53;4942328;28;20077;-64
2021/10/14 11:08:19;;;;;;;11.40;4.20;;;;;;;15.74;74.82;101672.69;4971116;28;19922;-65
2021/10/14 11:10:47;;;;;;;9.52;4.25;;;;;;;15.67;74.53;101663.63;4952267;28;20051;-65
2021/10/14 11:13:13;;;;;;;10.32;4.35;;;;;;;15.63;74.54;101656.88;4955985;28;20031;-64
2021/10/14 11:15:39;;;;;;;15.15;5.43;;;;;;;15.74;74.47;101651.00;4955181;28;20034;-64
2021/10/14 11:18:07;;;;;;;15.43;5.32;;;;;;;15.90;73.99;101655.38;4939040;28;20403;-65
2021/10/14 11:20:33;;;;;;;10.75;4.20;;;;;;;15.97;73.09;101652.78;4939549;28;20038;-65
2021/10/14 11:23:04;;;;;;;10.02;4.40;;;;;;;15.98;72.52;101647.16;4945243;28;20027;-64
2021/10/14 11:25:30;;;;;;;11.40;4.72;;;;;;;16.14;71.59;101654.25;4950199;28;20045;-66
2021/10/14 11:28:07;;;;;;;9.82;3.92;;;;;;;16.22;71.10;101643.28;4969563;28;20157;-68
2021/10/14 11:30:42;;;;;;;9.10;3.58;;;;;;;16.39;70.39;101643.88;4974955;28;20097;-67
2021/10/14 11:33:13;;;;;;;13.48;4.05;;;;;;;16.44;70.21;101643.28;4980126;28;20042;-68